Terminal Aerodrome Forecast
Issued by NWS Grand Rapids, MI

Home | Current Version | Previous Version | Text Only | Print | Product List | Glossary On
Versions: 1 2 3 4 5 6 7 8 9 10 11 12 13 14 15 16 17 18 19 20 21
000
FTUS43 KGRR 310700 AAA
TAFGRR
TAF AMD
KGRR 310747Z 3108/0106 28010KT P6SM -SHRA OVC025
     FM311100 30010G18KT 5SM -SHRA BR OVC015
     FM311700 36024G38KT 2SM -SHRASN BR OVC010
     FM311900 36024G38KT P6SM VCSH BKN025
     FM010100 36014G22KT P6SM FEW035=

USA.gov is the U.S. government's official web portal to all federal, state and local government web resources and services.